createdAt,value
2022-11-10T00:01:20.047Z,100186.00
2022-11-10T00:04:06.705Z,100189.00
2022-11-10T00:06:53.037Z,100190.00
2022-11-10T00:09:39.511Z,100194.00
2022-11-10T00:12:25.874Z,100202.00
2022-11-10T00:15:31.005Z,100196.00
2022-11-10T00:18:17.566Z,100204.00
2022-11-10T00:21:05.970Z,100209.00
2022-11-10T00:23:52.732Z,100209.00
2022-11-10T00:26:38.927Z,100200.00
2022-11-10T00:29:25.641Z,100209.00
2022-11-10T00:32:12.071Z,100211.00
2022-11-10T00:34:58.684Z,100220.00
2022-11-10T00:37:45.302Z,100221.00
2022-11-10T00:40:31.653Z,100226.00
2022-11-10T00:43:22.455Z,100227.00
2022-11-10T00:46:12.188Z,100232.00
2022-11-10T00:48:58.810Z,100236.00
2022-11-10T00:51:45.044Z,100233.00
2022-11-10T00:54:31.668Z,100238.00
2022-11-10T00:57:18.166Z,100237.00
2022-11-10T01:00:05.362Z,100244.00
2022-11-10T01:02:51.778Z,100240.00
2022-11-10T01:05:38.970Z,100249.00
2022-11-10T01:08:25.548Z,100248.00
2022-11-10T01:11:20.351Z,100251.00
2022-11-10T01:14:06.623Z,100251.00
2022-11-10T01:16:53.080Z,100262.00
2022-11-10T01:19:39.229Z,100261.00
2022-11-10T01:22:26.160Z,100270.00
2022-11-10T01:25:12.391Z,100275.00
2022-11-10T01:27:58.817Z,100264.00
2022-11-10T01:30:45.139Z,100280.00
2022-11-10T01:33:31.585Z,100280.00
2022-11-10T01:36:18.263Z,100274.00
2022-11-10T01:39:04.944Z,100284.00
2022-11-10T01:41:51.341Z,100289.00
2022-11-10T01:44:38.009Z,100282.00
2022-11-10T01:47:24.411Z,100288.00
2022-11-10T01:50:11.073Z,100292.00
2022-11-10T01:53:01.788Z,100295.00
2022-11-10T01:55:49.400Z,100291.00
2022-11-10T01:58:40.405Z,100295.00
2022-11-10T02:01:27.199Z,100284.00
2022-11-10T02:04:17.113Z,100288.00
2022-11-10T02:07:03.657Z,100301.00
2022-11-10T02:09:50.178Z,100294.00
2022-11-10T02:12:39.365Z,100299.00
2022-11-10T02:15:26.100Z,100301.00
2022-11-10T02:18:12.516Z,100305.00
2022-11-10T02:20:58.885Z,100310.00
2022-11-10T02:23:55.319Z,100311.00
2022-11-10T02:26:46.440Z,100320.00
2022-11-10T02:29:32.716Z,100322.00
2022-11-10T02:32:19.319Z,100314.00
2022-11-10T02:35:06.333Z,100320.00
2022-11-10T02:37:52.623Z,100324.00
2022-11-10T02:40:39.467Z,100316.00
2022-11-10T02:43:25.728Z,100331.00
2022-11-10T02:46:12.238Z,100334.00
2022-11-10T02:48:58.749Z,100335.00
2022-11-10T02:51:45.420Z,100346.00
2022-11-10T02:54:31.509Z,100342.00
2022-11-10T02:57:17.888Z,100352.00
2022-11-10T03:00:06.244Z,100355.00
2022-11-10T03:02:59.803Z,100360.00
2022-11-10T03:05:46.443Z,100354.00
2022-11-10T03:08:32.714Z,100362.00
2022-11-10T03:11:19.289Z,100357.00
2022-11-10T03:14:05.399Z,100359.00
2022-11-10T03:16:51.813Z,100351.00
2022-11-10T03:19:38.311Z,100356.00
2022-11-10T03:22:24.843Z,100364.00
2022-11-10T03:25:12.369Z,100359.00
2022-11-10T03:27:58.648Z,100360.00
2022-11-10T03:30:45.566Z,100371.00
2022-11-10T03:33:32.140Z,100366.00
2022-11-10T03:36:18.610Z,100370.00
2022-11-10T03:39:05.125Z,100373.00
2022-11-10T03:41:51.381Z,100378.00
2022-11-10T03:44:37.998Z,100386.00
2022-11-10T03:47:24.239Z,100376.00
2022-11-10T03:50:10.965Z,100380.00
2022-11-10T03:52:57.365Z,100382.00
2022-11-10T03:55:43.798Z,100390.00
2022-11-10T03:58:30.133Z,100395.00
2022-11-10T04:01:16.892Z,100387.00
2022-11-10T04:04:03.136Z,100398.00
2022-11-10T04:07:08.056Z,100414.00
2022-11-10T04:09:54.444Z,100414.00
2022-11-10T04:12:59.067Z,100422.00
2022-11-10T04:15:46.085Z,100424.00
2022-11-10T04:18:32.579Z,100425.00
2022-11-10T04:21:18.955Z,100422.00
2022-11-10T04:24:05.740Z,100426.00
2022-11-10T04:26:52.195Z,100431.00
2022-11-10T04:29:38.976Z,100431.00
2022-11-10T04:32:25.123Z,100438.00
2022-11-10T04:35:11.706Z,100444.00
2022-11-10T04:37:58.120Z,100449.00
2022-11-10T04:40:44.652Z,100446.00
2022-11-10T04:43:31.299Z,100455.00
2022-11-10T04:46:44.361Z,100460.00
2022-11-10T04:49:30.668Z,100458.00
2022-11-10T04:52:17.136Z,100464.00
2022-11-10T04:55:03.598Z,100457.00
2022-11-10T04:57:49.795Z,100469.00
2022-11-10T05:00:37.000Z,100476.00
2022-11-10T05:03:23.541Z,100487.00
2022-11-10T05:06:10.918Z,100496.00
2022-11-10T05:08:57.427Z,100499.00
2022-11-10T05:11:43.604Z,100505.00
2022-11-10T05:14:29.658Z,100512.00
2022-11-10T05:17:15.908Z,100509.00
2022-11-10T05:20:02.380Z,100507.00
2022-11-10T05:23:09.565Z,100519.00
2022-11-10T05:25:56.302Z,100515.00
2022-11-10T05:28:44.557Z,100515.00
2022-11-10T05:31:34.141Z,100525.00
2022-11-10T05:34:20.613Z,100528.00
2022-11-10T05:37:06.855Z,100535.00
2022-11-10T05:39:53.304Z,100533.00
2022-11-10T05:42:53.207Z,100538.00
2022-11-10T05:45:39.517Z,100536.00
2022-11-10T05:48:25.788Z,100534.00
2022-11-10T05:51:12.205Z,100540.00
2022-11-10T05:53:58.921Z,100544.00
2022-11-10T05:56:46.202Z,100552.00
2022-11-10T05:59:32.661Z,100550.00
2022-11-10T06:02:18.989Z,100566.00
2022-11-10T06:05:06.061Z,100574.00
2022-11-10T06:07:52.957Z,100586.00
2022-11-10T06:10:40.552Z,100579.00
2022-11-10T06:13:26.827Z,100588.00
2022-11-10T06:16:13.198Z,100593.00
2022-11-10T06:18:59.979Z,100597.00
2022-11-10T06:21:46.205Z,100601.00
2022-11-10T06:24:32.832Z,100612.00
2022-11-10T06:27:19.078Z,100613.00
2022-11-10T06:30:05.979Z,100626.00
2022-11-10T06:32:52.752Z,100628.00
2022-11-10T06:35:39.033Z,100630.00
2022-11-10T06:38:25.383Z,100629.00
2022-11-10T06:41:11.706Z,100638.00
2022-11-10T06:43:58.159Z,100636.00
2022-11-10T06:46:44.425Z,100640.00
2022-11-10T06:49:31.150Z,100638.00
2022-11-10T06:52:17.539Z,100646.00
2022-11-10T06:55:04.133Z,100651.00
2022-11-10T06:57:50.939Z,100661.00
2022-11-10T07:00:37.536Z,100656.00
2022-11-10T07:03:23.936Z,100663.00
2022-11-10T07:06:10.518Z,100666.00
2022-11-10T07:08:56.983Z,100671.00
2022-11-10T07:11:43.768Z,100678.00
2022-11-10T07:14:30.439Z,100676.00
2022-11-10T07:17:16.539Z,100689.00
2022-11-10T07:20:02.613Z,100702.00
2022-11-10T07:22:49.302Z,100712.00
2022-11-10T07:25:37.116Z,100725.00
2022-11-10T07:28:28.205Z,100744.00
2022-11-10T07:31:15.109Z,100746.00
2022-11-10T07:34:01.253Z,100748.00
2022-11-10T07:36:47.901Z,100752.00
2022-11-10T07:39:34.226Z,100756.00
2022-11-10T07:42:21.206Z,100763.00
2022-11-10T07:45:08.035Z,100759.00
2022-11-10T07:48:00.313Z,100761.00
2022-11-10T07:50:47.392Z,100759.00
2022-11-10T07:53:33.708Z,100771.00
2022-11-10T07:56:20.164Z,100776.00
2022-11-10T07:59:06.697Z,100782.00
2022-11-10T08:01:53.244Z,100786.00
2022-11-10T08:04:40.051Z,100789.00
2022-11-10T08:07:26.234Z,100781.00
2022-11-10T08:10:12.542Z,100783.00
2022-11-10T08:13:00.609Z,100774.00
2022-11-10T08:15:46.935Z,100789.00
2022-11-10T08:18:35.558Z,100801.00
2022-11-10T08:21:22.392Z,100800.00
2022-11-10T08:24:08.995Z,100805.00
2022-11-10T08:26:56.215Z,100805.00
2022-11-10T08:29:42.425Z,100799.00
2022-11-10T08:32:28.726Z,100813.00
2022-11-10T08:35:15.424Z,100819.00
2022-11-10T08:38:09.484Z,100836.00
2022-11-10T08:40:57.691Z,100839.00
2022-11-10T08:43:44.369Z,100835.00
2022-11-10T08:46:30.465Z,100843.00
2022-11-10T08:49:16.990Z,100847.00
2022-11-10T08:52:03.175Z,100853.00
2022-11-10T08:54:49.636Z,100864.00
2022-11-10T08:57:36.123Z,100861.00
2022-11-10T09:00:22.581Z,100868.00
2022-11-10T09:03:16.253Z,100859.00
2022-11-10T09:06:02.393Z,100872.00
2022-11-10T09:08:49.210Z,100878.00
2022-11-10T09:11:35.320Z,100868.00
2022-11-10T09:14:22.140Z,100880.00
2022-11-10T09:17:08.458Z,100880.00
2022-11-10T09:19:54.987Z,100877.00
2022-11-10T09:22:41.384Z,100884.00
2022-11-10T09:25:27.662Z,100873.00
2022-11-10T09:28:15.243Z,100874.00
2022-11-10T09:31:02.108Z,100885.00
2022-11-10T09:33:48.485Z,100889.00
2022-11-10T09:36:34.831Z,100883.00
2022-11-10T09:39:21.636Z,100895.00
2022-11-10T09:42:30.892Z,100909.00
2022-11-10T09:45:39.760Z,100910.00
2022-11-10T09:48:28.857Z,100923.00
2022-11-10T09:51:23.317Z,100920.00
2022-11-10T09:54:40.320Z,100921.00
2022-11-10T09:57:27.795Z,100919.00
2022-11-10T10:00:16.471Z,100921.00
2022-11-10T10:03:04.544Z,100916.00
2022-11-10T10:06:04.332Z,100932.00
2022-11-10T10:08:50.360Z,100930.00
2022-11-10T10:11:53.512Z,100918.00
2022-11-10T10:14:58.249Z,100930.00
2022-11-10T10:18:03.375Z,100916.00
2022-11-10T10:21:34.824Z,100932.00
2022-11-10T10:24:22.591Z,100940.00
2022-11-10T10:27:13.021Z,100932.00
2022-11-10T10:29:59.472Z,100935.00
2022-11-10T10:32:46.132Z,100933.00
2022-11-10T10:35:34.569Z,100942.00
2022-11-10T10:38:30.968Z,100928.00
2022-11-10T10:41:26.031Z,100928.00
2022-11-10T10:44:15.354Z,100939.00
2022-11-10T10:47:03.577Z,100938.00
2022-11-10T10:49:50.214Z,100931.00
2022-11-10T10:52:36.590Z,100940.00
2022-11-10T10:55:28.998Z,100936.00
2022-11-10T10:58:23.703Z,100931.00
2022-11-10T11:01:16.882Z,100929.00
2022-11-10T11:04:25.932Z,100931.00
2022-11-10T11:07:25.695Z,100940.00
2022-11-10T11:10:38.400Z,100943.00
2022-11-10T11:13:26.676Z,100940.00
2022-11-10T11:16:13.262Z,100944.00
2022-11-10T11:19:00.079Z,100957.00
2022-11-10T11:22:18.470Z,100960.00
2022-11-10T11:25:26.107Z,100953.00
2022-11-10T11:28:15.706Z,100953.00
2022-11-10T11:31:19.765Z,100955.00
2022-11-10T11:34:15.022Z,100955.00
2022-11-10T11:37:14.215Z,100954.00
2022-11-10T11:40:07.151Z,100965.00
2022-11-10T11:43:00.664Z,100960.00
2022-11-10T11:45:52.410Z,100974.00
2022-11-10T11:48:57.912Z,100974.00
2022-11-10T11:51:59.396Z,100971.00
2022-11-10T11:55:04.634Z,100962.00
2022-11-10T11:57:53.678Z,100970.00
2022-11-10T12:01:16.033Z,100978.00
2022-11-10T12:04:37.720Z,100968.00
2022-11-10T12:07:58.301Z,100968.00
2022-11-10T12:11:06.179Z,100970.00
2022-11-10T12:13:56.312Z,100975.00
2022-11-10T12:16:46.382Z,100976.00
2022-11-10T12:19:55.204Z,100973.00
2022-11-10T12:23:13.070Z,100974.00
2022-11-10T12:26:40.878Z,100978.00
2022-11-10T12:29:36.150Z,100978.00
2022-11-10T12:32:32.570Z,100981.00
2022-11-10T12:35:28.902Z,100990.00
2022-11-10T12:38:22.147Z,100994.00
2022-11-10T12:41:20.243Z,100994.00
2022-11-10T12:44:08.123Z,100992.00
2022-11-10T12:46:58.702Z,100991.00
2022-11-10T12:50:02.659Z,100990.00
2022-11-10T12:52:56.102Z,101001.00
2022-11-10T12:55:51.608Z,101000.00
2022-11-10T12:58:37.855Z,101007.00
2022-11-10T13:01:24.288Z,100997.00
2022-11-10T13:04:15.134Z,101006.00
2022-11-10T13:07:11.851Z,101010.00
2022-11-10T13:10:19.709Z,101009.00
2022-11-10T13:13:06.109Z,101017.00
2022-11-10T13:15:55.205Z,101018.00
2022-11-10T13:18:44.601Z,101024.00
2022-11-10T13:22:01.544Z,101022.00
2022-11-10T13:24:47.768Z,101023.00
2022-11-10T13:27:42.601Z,101019.00
2022-11-10T13:30:49.030Z,101026.00
2022-11-10T13:33:37.378Z,101042.00
2022-11-10T13:37:03.177Z,101040.00
2022-11-10T13:39:49.597Z,101051.00
2022-11-10T13:42:36.558Z,101047.00
2022-11-10T13:45:43.464Z,101056.00
2022-11-10T13:48:39.073Z,101058.00
2022-11-10T13:51:27.070Z,101056.00
2022-11-10T13:54:49.169Z,101060.00
2022-11-10T13:57:39.441Z,101068.00
2022-11-10T14:00:31.145Z,101066.00
2022-11-10T14:03:55.132Z,101064.00
2022-11-10T14:07:00.188Z,101082.00
2022-11-10T14:09:52.185Z,101075.00
2022-11-10T14:12:57.632Z,101074.00
2022-11-10T14:15:46.325Z,101073.00
2022-11-10T14:18:52.750Z,101077.00
2022-11-10T14:22:05.486Z,101082.00
2022-11-10T14:25:06.234Z,101085.00
2022-11-10T14:27:57.745Z,101088.00
2022-11-10T14:30:55.287Z,101077.00
2022-11-10T14:33:41.649Z,101078.00
2022-11-10T14:36:28.357Z,101072.00
2022-11-10T14:39:16.209Z,101077.00
2022-11-10T14:42:04.467Z,101083.00
2022-11-10T14:44:50.984Z,101089.00
2022-11-10T14:47:37.932Z,101093.00
2022-11-10T14:50:32.884Z,101099.00
2022-11-10T14:53:49.048Z,101101.00
2022-11-10T14:56:39.059Z,101101.00
2022-11-10T14:59:26.240Z,101106.00
2022-11-10T15:02:17.827Z,101103.00
2022-11-10T15:05:05.454Z,101108.00
2022-11-10T15:07:57.586Z,101108.00
2022-11-10T15:10:48.021Z,101123.00
2022-11-10T15:13:38.470Z,101115.00
2022-11-10T15:16:34.225Z,101130.00
2022-11-10T15:19:32.044Z,101137.00
2022-11-10T15:22:29.902Z,101137.00
2022-11-10T15:25:22.991Z,101136.00
2022-11-10T15:28:27.241Z,101142.00
2022-11-10T15:31:25.515Z,101135.00
2022-11-10T15:34:42.957Z,101136.00
2022-11-10T15:37:31.614Z,101142.00
2022-11-10T15:40:50.157Z,101133.00
2022-11-10T15:43:36.947Z,101138.00
2022-11-10T15:46:25.219Z,101141.00
2022-11-10T15:49:26.206Z,101140.00
2022-11-10T15:52:14.464Z,101148.00
2022-11-10T15:55:00.687Z,101139.00
2022-11-10T15:57:46.836Z,101139.00
2022-11-10T16:00:33.620Z,101140.00
2022-11-10T16:03:22.142Z,101143.00
2022-11-10T16:06:11.218Z,101144.00
2022-11-10T16:08:57.748Z,101140.00
2022-11-10T16:11:45.943Z,101141.00
2022-11-10T16:14:32.532Z,101140.00
2022-11-10T16:17:19.291Z,101143.00
2022-11-10T16:20:13.899Z,101151.00
2022-11-10T16:23:00.136Z,101149.00
2022-11-10T16:25:48.960Z,101158.00
2022-11-10T16:28:35.536Z,101160.00
2022-11-10T16:31:22.715Z,101160.00
2022-11-10T16:34:15.365Z,101161.00
2022-11-10T16:37:03.072Z,101172.00
2022-11-10T16:39:49.469Z,101164.00
2022-11-10T16:42:35.679Z,101175.00
2022-11-10T16:45:23.918Z,101188.00
2022-11-10T16:48:13.422Z,101193.00
2022-11-10T16:51:01.718Z,101196.00
2022-11-10T16:53:48.263Z,101202.00
2022-11-10T16:56:34.900Z,101204.00
2022-11-10T16:59:21.332Z,101200.00
2022-11-10T17:02:31.200Z,101194.00
2022-11-10T17:05:17.511Z,101210.00
2022-11-10T17:08:04.665Z,101221.00
2022-11-10T17:10:51.438Z,101224.00
2022-11-10T17:13:37.935Z,101228.00
2022-11-10T17:16:34.467Z,101210.00
2022-11-10T17:19:24.003Z,101207.00
2022-11-10T17:22:18.886Z,101198.00
2022-11-10T17:25:05.964Z,101201.00
2022-11-10T17:27:52.384Z,101212.00
2022-11-10T17:30:38.997Z,101215.00
2022-11-10T17:33:25.990Z,101220.00
2022-11-10T17:36:20.239Z,101234.00
2022-11-10T17:39:06.461Z,101222.00
2022-11-10T17:41:52.718Z,101237.00
2022-11-10T17:44:39.326Z,101230.00
2022-11-10T17:47:25.548Z,101220.00
2022-11-10T17:50:12.372Z,101218.00
2022-11-10T17:53:01.460Z,101232.00
2022-11-10T17:55:48.317Z,101231.00
2022-11-10T17:58:34.591Z,101224.00
2022-11-10T18:01:22.598Z,101224.00
2022-11-10T18:04:13.848Z,101223.00
2022-11-10T18:07:00.399Z,101224.00
2022-11-10T18:09:48.084Z,101230.00
2022-11-10T18:12:34.653Z,101229.00
2022-11-10T18:15:21.362Z,101219.00
2022-11-10T18:18:10.195Z,101233.00
2022-11-10T18:20:57.866Z,101232.00
2022-11-10T18:23:44.916Z,101234.00
2022-11-10T18:26:31.126Z,101230.00
2022-11-10T18:29:17.567Z,101228.00
2022-11-10T18:32:04.592Z,101228.00
2022-11-10T18:34:51.229Z,101222.00
2022-11-10T18:37:39.312Z,101230.00
2022-11-10T18:40:26.432Z,101230.00
2022-11-10T18:43:12.842Z,101233.00
2022-11-10T18:45:58.879Z,101246.00
2022-11-10T18:48:48.792Z,101250.00
2022-11-10T18:51:35.527Z,101255.00
2022-11-10T18:54:22.474Z,101258.00
2022-11-10T18:57:14.615Z,101249.00
2022-11-10T19:00:01.331Z,101244.00
2022-11-10T19:02:48.296Z,101247.00
2022-11-10T19:05:34.489Z,101242.00
2022-11-10T19:08:20.932Z,101251.00
2022-11-10T19:11:09.839Z,101250.00
2022-11-10T19:13:58.938Z,101237.00
2022-11-10T19:16:45.451Z,101244.00
2022-11-10T19:19:31.910Z,101242.00
2022-11-10T19:22:18.545Z,101249.00
2022-11-10T19:25:09.118Z,101253.00
2022-11-10T19:27:57.379Z,101248.00
2022-11-10T19:30:43.927Z,101263.00
2022-11-10T19:33:34.836Z,101263.00
2022-11-10T19:36:26.121Z,101256.00
2022-11-10T19:39:12.915Z,101263.00
2022-11-10T19:41:59.324Z,101261.00
2022-11-10T19:44:45.479Z,101267.00
2022-11-10T19:47:31.969Z,101262.00
2022-11-10T19:50:18.195Z,101260.00
2022-11-10T19:53:04.835Z,101258.00
2022-11-10T19:55:51.715Z,101271.00
2022-11-10T19:58:39.044Z,101264.00
2022-11-10T20:01:26.618Z,101267.00
2022-11-10T20:04:14.199Z,101280.00
2022-11-10T20:07:19.256Z,101298.00
2022-11-10T20:10:06.258Z,101296.00
2022-11-10T20:12:52.947Z,101296.00
2022-11-10T20:15:40.788Z,101295.00
2022-11-10T20:18:27.325Z,101305.00
2022-11-10T20:21:17.110Z,101299.00
2022-11-10T20:24:05.878Z,101297.00
2022-11-10T20:26:52.414Z,101301.00
2022-11-10T20:29:38.948Z,101297.00
2022-11-10T20:32:26.595Z,101295.00
2022-11-10T20:35:13.121Z,101306.00
2022-11-10T20:37:59.252Z,101316.00
2022-11-10T20:40:45.722Z,101320.00
2022-11-10T20:43:34.840Z,101324.00
2022-11-10T20:46:48.316Z,101322.00
2022-11-10T20:49:29.001Z,101319.00
2022-11-10T20:52:15.368Z,101310.00
2022-11-10T20:55:01.909Z,101319.00
2022-11-10T20:57:48.553Z,101315.00
2022-11-10T21:00:34.970Z,101314.00
2022-11-10T21:03:22.355Z,101314.00
2022-11-10T21:06:09.468Z,101316.00
2022-11-10T21:08:57.140Z,101309.00
2022-11-10T21:12:02.127Z,101304.00
2022-11-10T21:14:48.828Z,101294.00
2022-11-10T21:17:35.887Z,101302.00
2022-11-10T21:20:24.591Z,101307.00
2022-11-10T21:23:11.607Z,101308.00
2022-11-10T21:26:00.077Z,101307.00
2022-11-10T21:28:46.361Z,101319.00
2022-11-10T21:31:33.027Z,101311.00
2022-11-10T21:34:19.321Z,101317.00
2022-11-10T21:37:05.869Z,101305.00
2022-11-10T21:39:52.439Z,101308.00
2022-11-10T21:42:39.100Z,101310.00
2022-11-10T21:45:25.649Z,101306.00
2022-11-10T21:48:12.569Z,101301.00
2022-11-10T21:51:03.529Z,101301.00
2022-11-10T21:53:50.204Z,101301.00
2022-11-10T21:56:36.554Z,101310.00
2022-11-10T21:59:23.160Z,101306.00
2022-11-10T22:02:11.012Z,101315.00
2022-11-10T22:04:57.385Z,101320.00
2022-11-10T22:07:43.944Z,101324.00
2022-11-10T22:10:49.133Z,101330.00
2022-11-10T22:13:54.185Z,101317.00
2022-11-10T22:17:04.402Z,101329.00
2022-11-10T22:19:50.694Z,101327.00
2022-11-10T22:22:39.582Z,101327.00
2022-11-10T22:25:26.122Z,101340.00
2022-11-10T22:28:12.838Z,101342.00
2022-11-10T22:30:59.309Z,101348.00
2022-11-10T22:33:45.666Z,101355.00
2022-11-10T22:36:32.221Z,101361.00
2022-11-10T22:39:19.204Z,101362.00
2022-11-10T22:42:24.454Z,101374.00
2022-11-10T22:45:11.099Z,101357.00
2022-11-10T22:48:16.062Z,101362.00
2022-11-10T22:51:02.469Z,101359.00
2022-11-10T22:53:48.832Z,101370.00
2022-11-10T22:56:35.243Z,101357.00
2022-11-10T22:59:21.647Z,101361.00
2022-11-10T23:02:08.277Z,101361.00
2022-11-10T23:04:54.750Z,101352.00
2022-11-10T23:08:03.136Z,101359.00
2022-11-10T23:10:49.645Z,101363.00
2022-11-10T23:13:36.371Z,101361.00
2022-11-10T23:16:34.347Z,101363.00
2022-11-10T23:19:20.848Z,101372.00
2022-11-10T23:22:16.469Z,101364.00
2022-11-10T23:25:02.857Z,101370.00
2022-11-10T23:27:49.287Z,101369.00
2022-11-10T23:30:35.283Z,101364.00
2022-11-10T23:33:28.705Z,101366.00
2022-11-10T23:36:19.307Z,101361.00
2022-11-10T23:39:05.644Z,101374.00
2022-11-10T23:41:52.225Z,101375.00
2022-11-10T23:44:38.600Z,101371.00
2022-11-10T23:47:25.177Z,101380.00
2022-11-10T23:50:11.450Z,101383.00
2022-11-10T23:52:58.093Z,101378.00
2022-11-10T23:55:44.665Z,101377.00
2022-11-10T23:58:31.862Z,101384.00
